Terminal Aerodrome Forecast
Issued by NWS Wilmington, NC

Home | Current Version | Previous Version | Text Only | Print | Product List | Glossary On
Versions: 1 2 3 4 5 6 7 8 9 10 11 12 13 14 15 16 17 18 19 20 21 22 23 24 25 26 27 28 29 30 31 32
305
FTUS42 KILM 040535
TAFFLO
TAF
KFLO 040535Z 0406/0506 22008KT P6SM VCSH SCT050 BKN060 OVC080
     FM041100 29005KT P6SM VCSH SCT020
     FM041600 29010KT P6SM VCSH BKN050
     FM050000 28004KT P6SM VCSH BKN050=

USA.gov is the U.S. government's official web portal to all federal, state and local government web resources and services.